CheckWX is a tool to help pilots better visualize weather data.  It is not intended as a substitute for an official pre-flight weather briefing.

08:18:58 UTC

CYLW METAR
Kelowna International Airport
Kelowna, Canada
Current

19 mins ago

CYLW 220800Z AUTO 00000KT 9SM OVC120 M08/M09 A3000 RMK SLP184
Observed
Feb-22 @ 08:00 UTC
Visibility
9 SM
Flight Rules
VFR
Cloud Levels
  • Overcast at 12,000' AGL
Temperature
-8°C / 18°F
Dewpoint
-9°C / 16°F
Humidity
93%
Altimeter
30" Hg
Pressure
1018.4 hPa
Previous

1 hour ago

CYLW 220700Z AUTO 04003KT 330V050 9SM BKN130 BKN160 M08/M09 A3002 RMK SLP191
Observed
Feb-22 @ 07:00 UTC
Wind
  • 040° at 3 KTS
Visibility
9 SM
Flight Rules
VFR
Cloud Levels
  • Broken at 13,000' AGL
  • Broken at 16,000' AGL
Temperature
-8°C / 18°F
Dewpoint
-9°C / 16°F
Humidity
93%
Altimeter
30.02" Hg
Pressure
1019.1 hPa
Previous

2 hours ago

CYLW 220600Z AUTO 00000KT 9SM CLR M08/M10 A3002 RMK SLP195
Observed
Feb-22 @ 06:00 UTC
Visibility
9 SM
Flight Rules
VFR
Cloud Levels
  • Clear skies
Temperature
-8°C / 18°F
Dewpoint
-10°C / 14°F
Humidity
86%
Altimeter
30.02" Hg
Pressure
1019.5 hPa